Time;durP1;ratioP1;P1;durP2;ratioP2;P2;SDS_P1;SDS_P2;PMS_P1;PMS_P2;Temp;Humidity;BMP_temperature;BMP_pressure;BME280_temperature;BME280_humidity;BME280_pressure;Samples;Min_cycle;Max_cycle;Signal;HPM_P1;HPM_P2
2022/12/09 00:00:40;;;;;;;6.70;6.10;;;;;20.40;99573.00;;;;2070649;28;20218;-51
2022/12/09 00:01:41;;;;;;;6.93;6.33;;;;;20.40;99562.00;;;;2070298;28;20221;-50
2022/12/09 00:02:41;;;;;;;8.33;7.00;;;;;20.50;99567.00;;;;2076713;28;20636;-51
2022/12/09 00:03:41;;;;;;;6.93;6.23;;;;;20.40;99566.00;;;;2072515;28;20226;-51
2022/12/09 00:04:42;;;;;;;7.00;6.33;;;;;20.40;99562.00;;;;2078724;28;20255;-52
2022/12/09 00:05:42;;;;;;;7.73;6.43;;;;;20.40;99569.00;;;;2078818;28;20228;-49
2022/12/09 00:06:42;;;;;;;6.60;5.90;;;;;20.40;99569.00;;;;2078696;28;20241;-50
2022/12/09 00:07:43;;;;;;;7.70;6.87;;;;;20.40;99560.00;;;;2078699;28;20229;-49
2022/12/09 00:08:43;;;;;;;7.50;6.80;;;;;20.40;99562.00;;;;2078621;28;20564;-50
2022/12/09 00:09:43;;;;;;;7.03;6.33;;;;;20.40;99564.00;;;;2073461;28;20796;-51
2022/12/09 00:10:44;;;;;;;6.93;6.23;;;;;20.40;99555.00;;;;2072302;28;20222;-50
2022/12/09 00:11:44;;;;;;;7.40;6.70;;;;;20.40;99554.00;;;;2072308;28;20233;-49
2022/12/09 00:12:44;;;;;;;7.70;6.73;;;;;20.40;99563.00;;;;2071588;28;20300;-51
2022/12/09 00:13:52;;;;;;;8.60;6.63;;;;;20.30;99551.00;;;;2071714;28;20218;-50
2022/12/09 00:14:52;;;;;;;6.70;6.10;;;;;20.40;99550.00;;;;2069608;28;20213;-56
2022/12/09 00:15:52;;;;;;;6.67;6.00;;;;;20.40;99550.00;;;;2079773;28;20565;-54
2022/12/09 00:16:53;;;;;;;6.73;6.10;;;;;20.30;99539.00;;;;2080593;28;20685;-50
2022/12/09 00:17:54;;;;;;;7.15;6.35;;;;;20.30;99549.00;;;;2080449;28;20720;-50
2022/12/09 00:18:55;;;;;;;13.13;6.07;;;;;20.30;99538.00;;;;2078022;28;20213;-51
2022/12/09 00:19:55;;;;;;;7.53;6.23;;;;;20.30;99548.00;;;;2080362;28;20212;-50
2022/12/09 00:20:55;;;;;;;7.20;6.50;;;;;20.30;99545.00;;;;2078209;28;20452;-51
2022/12/09 00:21:56;;;;;;;6.90;6.23;;;;;20.30;99546.00;;;;2075754;28;20293;-51
2022/12/09 00:22:56;;;;;;;6.60;5.90;;;;;20.30;99545.00;;;;2078158;28;20233;-51
2022/12/09 00:23:58;;;;;;;6.83;6.23;;;;;20.30;99549.00;;;;2079996;28;20232;-51
2022/12/09 00:24:58;;;;;;;7.05;6.32;;;;;20.30;99545.00;;;;2080130;28;20232;-51
2022/12/09 00:25:58;;;;;;;6.73;6.13;;;;;20.30;99549.00;;;;2080081;28;20233;-51
2022/12/09 00:26:58;;;;;;;6.73;6.13;;;;;20.30;99537.00;;;;2074293;28;20283;-51
2022/12/09 00:27:59;;;;;;;7.00;6.33;;;;;20.30;99538.00;;;;2085241;28;20208;-51
2022/12/09 00:28:59;;;;;;;7.67;6.97;;;;;20.30;99545.00;;;;2083442;28;20294;-52
2022/12/09 00:30:00;;;;;;;7.10;6.30;;;;;20.30;99545.00;;;;2079603;28;20218;-50
2022/12/09 00:31:00;;;;;;;7.00;6.40;;;;;20.30;99552.00;;;;2075295;28;20214;-50
2022/12/09 00:32:01;;;;;;;9.50;6.20;;;;;20.30;99547.00;;;;2071190;28;20531;-51
2022/12/09 00:33:01;;;;;;;6.47;5.90;;;;;20.30;99543.00;;;;2073366;28;20456;-51
2022/12/09 00:34:06;;;;;;;7.10;6.40;;;;;20.30;99544.00;;;;2072485;28;20337;-50
2022/12/09 00:35:07;;;;;;;7.20;6.20;;;;;20.30;99544.00;;;;2072642;28;20211;-52
2022/12/09 00:36:13;;;;;;;6.80;6.20;;;;;20.20;99540.00;;;;2072053;28;20207;-51
2022/12/09 00:37:13;;;;;;;6.65;5.97;;;;;20.20;99549.00;;;;2071844;28;20706;-50
2022/12/09 00:38:14;;;;;;;7.70;6.13;;;;;20.20;99549.00;;;;2072095;28;20252;-51
2022/12/09 00:39:14;;;;;;;6.63;5.90;;;;;20.20;99545.00;;;;2071919;28;20210;-49
2022/12/09 00:40:14;;;;;;;6.53;5.93;;;;;20.20;99543.00;;;;2072031;28;20218;-50
2022/12/09 00:41:15;;;;;;;6.30;5.70;;;;;20.20;99549.00;;;;2072047;28;20241;-51
2022/12/09 00:42:15;;;;;;;6.60;6.00;;;;;20.20;99543.00;;;;2070471;28;20218;-51
2022/12/09 00:43:15;;;;;;;7.10;6.40;;;;;20.10;99548.00;;;;2072079;28;20222;-51
2022/12/09 00:44:16;;;;;;;7.07;6.37;;;;;20.20;99546.00;;;;2071985;28;22177;-51
2022/12/09 00:45:16;;;;;;;7.17;6.47;;;;;20.20;99543.00;;;;2071937;28;20293;-49
2022/12/09 00:46:17;;;;;;;6.93;6.20;;;;;20.10;99540.00;;;;2071769;28;20583;-50
2022/12/09 00:47:17;;;;;;;6.33;5.73;;;;;20.10;99551.00;;;;2071288;28;20225;-51
2022/12/09 00:48:17;;;;;;;7.33;6.63;;;;;20.10;99549.00;;;;2069025;28;20222;-51
2022/12/09 00:49:18;;;;;;;7.03;6.43;;;;;20.10;99548.00;;;;2071497;28;20446;-52
2022/12/09 00:50:18;;;;;;;7.27;6.57;;;;;20.20;99545.00;;;;2071961;28;20210;-51
2022/12/09 00:51:21;;;;;;;7.00;6.30;;;;;20.10;99547.00;;;;2072072;28;20582;-51
2022/12/09 00:52:21;;;;;;;7.63;6.50;;;;;20.20;99550.00;;;;2071395;28;20562;-49
2022/12/09 00:53:21;;;;;;;7.30;6.40;;;;;20.10;99546.00;;;;2071204;28;20272;-48
2022/12/09 00:54:22;;;;;;;6.70;6.00;;;;;20.20;99538.00;;;;2071933;28;20218;-49
2022/12/09 00:55:22;;;;;;;6.30;5.70;;;;;20.10;99540.00;;;;2074785;28;20217;-48
2022/12/09 00:56:23;;;;;;;7.87;6.27;;;;;20.10;99547.00;;;;2071422;28;20276;-48
2022/12/09 00:57:24;;;;;;;6.93;6.03;;;;;20.20;99550.00;;;;2072012;28;20226;-49
2022/12/09 00:58:24;;;;;;;5.73;5.23;;;;;20.10;99541.00;;;;2070036;28;20210;-50
2022/12/09 00:59:25;;;;;;;7.27;6.67;;;;;20.10;99546.00;;;;2071904;28;20214;-48
2022/12/09 01:00:25;;;;;;;5.53;5.03;;;;;20.10;99538.00;;;;2072112;28;20261;-51
2022/12/09 01:01:26;;;;;;;6.53;5.73;;;;;20.10;99539.00;;;;2071709;28;20218;-51
2022/12/09 01:02:26;;;;;;;8.17;6.20;;;;;20.10;99547.00;;;;2071088;28;20264;-52
2022/12/09 01:03:26;;;;;;;8.10;5.67;;;;;20.10;99544.00;;;;2071092;28;20211;-51
2022/12/09 01:04:27;;;;;;;7.07;6.37;;;;;20.10;99534.00;;;;2071719;28;20234;-51
2022/12/09 01:05:27;;;;;;;10.57;8.03;;;;;20.00;99542.00;;;;2071934;28;20214;-51
2022/12/09 01:06:27;;;;;;;7.00;6.30;;;;;20.00;99541.00;;;;2071493;28;20713;-50
2022/12/09 01:07:28;;;;;;;11.10;7.63;;;;;20.00;99546.00;;;;2071805;28;20694;-55
2022/12/09 01:08:28;;;;;;;14.70;7.93;;;;;20.00;99545.00;;;;2071973;28;20705;-56
2022/12/09 01:09:28;;;;;;;9.60;8.17;;;;;19.90;99545.00;;;;2071571;28;20222;-55
2022/12/09 01:10:29;;;;;;;9.20;7.83;;;;;19.90;99542.00;;;;2071927;28;20222;-55
2022/12/09 01:11:29;;;;;;;8.13;7.33;;;;;19.90;99541.00;;;;2071449;28;20296;-56
2022/12/09 01:12:29;;;;;;;11.73;7.87;;;;;19.90;99543.00;;;;2070908;28;20207;-57
2022/12/09 01:13:30;;;;;;;9.40;7.60;;;;;19.90;99548.00;;;;2071913;28;20214;-53
2022/12/09 01:14:30;;;;;;;9.20;7.50;;;;;19.90;99549.00;;;;2071828;28;20287;-54
2022/12/09 01:15:31;;;;;;;9.73;7.87;;;;;19.90;99544.00;;;;2071984;28;20214;-55
2022/12/09 01:16:32;;;;;;;10.60;8.40;;;;;19.90;99538.00;;;;2071418;28;20217;-55
2022/12/09 01:17:32;;;;;;;7.95;7.20;;;;;19.90;99545.00;;;;2070622;28;20214;-52
2022/12/09 01:18:32;;;;;;;9.30;7.80;;;;;19.90;99553.00;;;;2071180;28;20214;-54
2022/12/09 01:19:33;;;;;;;12.40;8.53;;;;;19.90;99549.00;;;;2071607;28;20787;-55
2022/12/09 01:20:33;;;;;;;9.30;7.40;;;;;19.90;99545.00;;;;2076097;28;20708;-55
2022/12/09 01:21:34;;;;;;;9.23;8.33;;;;;19.80;99550.00;;;;2079124;28;20779;-56
2022/12/09 01:22:34;;;;;;;8.50;7.70;;;;;19.80;99554.00;;;;2078739;28;20209;-55
2022/12/09 01:23:35;;;;;;;9.27;7.60;;;;;19.80;99556.00;;;;2079894;28;20300;-55
2022/12/09 01:24:35;;;;;;;8.57;7.77;;;;;19.80;99555.00;;;;2079651;28;20205;-56
2022/12/09 01:25:37;;;;;;;8.33;7.13;;;;;19.80;99548.00;;;;2079476;28;20210;-55
2022/12/09 01:26:37;;;;;;;8.20;7.40;;;;;19.80;99549.00;;;;2078822;28;20217;-54
2022/12/09 01:27:38;;;;;;;8.30;7.60;;;;;19.80;99555.00;;;;2078951;28;20339;-55
2022/12/09 01:28:38;;;;;;;9.23;7.50;;;;;19.80;99552.00;;;;2079962;28;20304;-56
2022/12/09 01:29:38;;;;;;;8.03;7.23;;;;;19.80;99552.00;;;;2080003;28;20210;-56
2022/12/09 01:30:39;;;;;;;8.70;7.73;;;;;19.80;99553.00;;;;2079914;28;20210;-57
2022/12/09 01:31:39;;;;;;;8.40;7.60;;;;;19.80;99555.00;;;;2079479;28;20209;-54
2022/12/09 01:32:40;;;;;;;9.20;7.17;;;;;19.70;99555.00;;;;2078619;28;20212;-55
2022/12/09 01:33:40;;;;;;;8.27;7.47;;;;;19.80;99552.00;;;;2078692;28;20213;-54
2022/12/09 01:34:41;;;;;;;8.47;7.57;;;;;19.60;99552.00;;;;2079104;28;20886;-56
2022/12/09 01:35:41;;;;;;;8.73;7.47;;;;;19.70;99552.00;;;;2079606;28;20293;-53
2022/12/09 01:36:41;;;;;;;8.87;7.97;;;;;19.70;99552.00;;;;2079332;28;20214;-55
2022/12/09 01:37:42;;;;;;;9.57;8.30;;;;;19.70;99550.00;;;;2079087;28;20224;-56
2022/12/09 01:38:42;;;;;;;8.63;7.80;;;;;19.70;99563.00;;;;2079793;28;20210;-57
2022/12/09 01:39:43;;;;;;;8.67;6.80;;;;;19.70;99552.00;;;;2079628;28;20213;-55
2022/12/09 01:40:45;;;;;;;10.13;7.40;;;;;19.70;99564.00;;;;2079719;28;20235;-53
2022/12/09 01:41:45;;;;;;;7.70;6.95;;;;;19.70;99551.00;;;;2078807;28;20872;-56
2022/12/09 01:42:48;;;;;;;8.50;7.50;;;;;19.70;99552.00;;;;2078005;28;20206;-53
2022/12/09 01:44:27;;;;;;;9.95;8.43;;;;;19.70;99547.00;;;;2078030;28;20579;-56
2022/12/09 01:45:30;;;;;;;8.43;7.63;;;;;19.70;99565.00;;;;2061257;28;20258;-56
2022/12/09 01:46:30;;;;;;;9.40;7.93;;;;;19.70;99549.00;;;;2061520;28;20222;-54
2022/12/09 01:47:31;;;;;;;8.67;7.87;;;;;19.70;99551.00;;;;2061302;28;20214;-56
2022/12/09 01:48:33;;;;;;;8.97;8.00;;;;;19.60;99547.00;;;;2061824;28;20249;-55
2022/12/09 01:49:36;;;;;;;8.52;7.72;;;;;19.60;99552.00;;;;2054176;28;20908;-53
2022/12/09 01:50:37;;;;;;;8.68;7.82;;;;;19.70;99549.00;;;;2053611;28;20311;-55
2022/12/09 01:51:38;;;;;;;8.10;7.40;;;;;19.60;99550.00;;;;2071351;28;20221;-60
2022/12/09 01:52:38;;;;;;;8.70;7.50;;;;;19.60;99555.00;;;;2070678;28;20214;-54
2022/12/09 01:53:41;;;;;;;8.87;7.50;;;;;19.60;99551.00;;;;2070564;28;20257;-55
2022/12/09 01:54:42;;;;;;;10.38;7.72;;;;;19.60;99550.00;;;;2062994;28;20301;-56
2022/12/09 01:55:42;;;;;;;9.00;8.10;;;;;19.60;99547.00;;;;2064689;28;20711;-54
2022/12/09 01:56:42;;;;;;;8.43;7.57;;;;;19.60;99550.00;;;;2054545;28;20838;-52
2022/12/09 01:57:43;;;;;;;8.03;7.33;;;;;19.70;99548.00;;;;2070858;28;21049;-54
2022/12/09 01:58:43;;;;;;;8.80;7.63;;;;;19.70;99512.00;;;;2070693;28;21035;-52
2022/12/09 01:59:43;;;;;;;8.13;7.37;;;;;19.60;99544.00;;;;2062363;28;20618;-55
2022/12/09 02:00:44;;;;;;;8.50;7.70;;;;;19.60;99540.00;;;;2061122;28;20301;-56
2022/12/09 02:01:44;;;;;;;8.97;7.80;;;;;19.60;99538.00;;;;2068581;28;20211;-56
2022/12/09 02:02:46;;;;;;;8.37;7.67;;;;;19.60;99535.00;;;;2061723;28;20575;-54
2022/12/09 02:03:46;;;;;;;9.38;8.38;;;;;19.60;99543.00;;;;2058277;28;20215;-57
2022/12/09 02:04:47;;;;;;;8.17;7.37;;;;;19.60;99538.00;;;;2070414;28;20224;-53
2022/12/09 02:05:47;;;;;;;8.77;7.87;;;;;19.60;99539.00;;;;2062808;28;20219;-55
2022/12/09 02:06:48;;;;;;;8.50;7.70;;;;;19.60;99535.00;;;;2062502;28;20245;-52
2022/12/09 02:07:48;;;;;;;8.90;8.00;;;;;19.60;99543.00;;;;2078648;28;20279;-56
2022/12/09 02:08:49;;;;;;;8.73;8.03;;;;;19.60;99536.00;;;;2078740;28;20304;-56
2022/12/09 02:09:52;;;;;;;8.83;7.77;;;;;19.60;99536.00;;;;2070258;28;20217;-52
2022/12/09 02:10:58;;;;;;;9.10;8.30;;;;;19.60;99546.00;;;;2062455;28;20215;-52
2022/12/09 02:12:10;;;;;;;8.30;7.50;;;;;19.60;99533.00;;;;2068116;28;20210;-57
2022/12/09 02:13:22;;;;;;;9.32;8.15;;;;;19.60;99535.00;;;;2078695;28;20217;-57
2022/12/09 02:14:32;;;;;;;10.82;8.75;;;;;19.60;99529.00;;;;2062564;28;20296;-54
2022/12/09 02:15:35;;;;;;;8.65;7.85;;;;;19.60;99530.00;;;;2063507;28;20337;-59
2022/12/09 02:16:40;;;;;;;8.68;7.85;;;;;19.60;99539.00;;;;2068805;28;20237;-55
2022/12/09 02:17:54;;;;;;;11.07;8.85;;;;;19.50;99536.00;;;;2063621;28;20218;-54
2022/12/09 02:19:13;;;;;;;10.25;8.13;;;;;19.60;99542.00;;;;2064094;28;20613;-54
2022/12/09 02:20:33;;;;;;;8.30;7.50;;;;;19.60;99542.00;;;;2076936;28;20256;-50
2022/12/09 02:21:36;;;;;;;8.57;7.72;;;;;19.70;99538.00;;;;2070675;28;20232;-53
2022/12/09 02:22:42;;;;;;;8.60;7.70;;;;;19.70;99546.00;;;;2072443;28;20209;-52
2022/12/09 02:23:47;;;;;;;10.50;8.35;;;;;19.60;99536.00;;;;2070158;28;20221;-52
2022/12/09 02:24:51;;;;;;;11.80;8.15;;;;;19.70;99534.00;;;;2055227;28;20215;-53
2022/12/09 02:26:16;;;;;;;8.68;7.88;;;;;19.70;99530.00;;;;2067177;28;20241;-53
2022/12/09 02:27:20;;;;;;;10.20;7.85;;;;;19.70;99532.00;;;;2073766;28;20241;-52
2022/12/09 02:28:29;;;;;;;8.93;8.02;;;;;19.70;99529.00;;;;2070430;28;20217;-52
2022/12/09 02:30:14;;;;;;;9.80;8.10;;;;;19.60;99544.00;;;;2063521;28;20218;-53
2022/12/09 02:31:47;;;;;;;8.10;7.35;;;;;19.60;99529.00;;;;2069175;28;20218;-54
2022/12/09 02:32:50;;;;;;;11.38;7.70;;;;;19.60;99529.00;;;;2067537;28;20221;-54
2022/12/09 02:34:13;;;;;;;8.30;7.50;;;;;19.60;99537.00;;;;2078774;28;20729;-50
2022/12/09 02:35:50;;;;;;;8.98;8.18;;;;;19.60;99530.00;;;;2078600;28;20693;-53
2022/12/09 02:37:09;;;;;;;8.30;7.55;;;;;19.60;99524.00;;;;2072800;28;20236;-49
2022/12/09 02:38:16;;;;;;;8.95;7.95;;;;;19.60;99528.00;;;;2072853;28;20292;-52
2022/12/09 02:39:20;;;;;;;8.90;7.80;;;;;19.50;99520.00;;;;2062312;28;20227;-54
2022/12/09 02:40:23;;;;;;;11.45;7.93;;;;;19.50;99519.00;;;;2071477;28;20218;-54
2022/12/09 02:41:27;;;;;;;9.20;8.35;;;;;19.60;99536.00;;;;2078269;28;20672;-53
2022/12/09 02:42:30;;;;;;;8.60;7.70;;;;;19.50;99530.00;;;;2077664;28;20244;-52
2022/12/09 02:43:32;;;;;;;9.15;8.13;;;;;19.50;99527.00;;;;2062564;28;20211;-52
2022/12/09 02:44:32;;;;;;;9.60;8.68;;;;;19.30;99522.00;;;;2062558;28;20708;-54
2022/12/09 02:45:33;;;;;;;8.73;7.83;;;;;19.50;99531.00;;;;2078431;28;20217;-49
2022/12/09 02:46:33;;;;;;;10.23;8.50;;;;;19.50;99525.00;;;;2078046;28;21032;-48
2022/12/09 02:47:37;;;;;;;8.40;7.60;;;;;19.50;99517.00;;;;2070357;28;20812;-52
2022/12/09 02:48:44;;;;;;;9.15;8.35;;;;;19.60;99529.00;;;;2070581;28;20596;-51
2022/12/09 02:49:46;;;;;;;9.75;8.85;;;;;19.60;99525.00;;;;2062678;28;20294;-52
2022/12/09 02:50:47;;;;;;;8.93;8.13;;;;;19.60;99528.00;;;;2063165;28;20219;-54
2022/12/09 02:51:48;;;;;;;9.85;8.85;;;;;19.50;99528.00;;;;2058842;28;20225;-55
2022/12/09 02:52:49;;;;;;;9.10;8.23;;;;;19.60;99529.00;;;;2053428;28;20299;-54
2022/12/09 02:53:55;;;;;;;9.55;8.63;;;;;19.50;99529.00;;;;2069874;28;20749;-51
2022/12/09 02:54:56;;;;;;;12.73;9.80;;;;;19.50;99526.00;;;;2078348;28;20217;-51
2022/12/09 02:55:56;;;;;;;9.97;8.97;;;;;19.40;99525.00;;;;2054642;28;20212;-53
2022/12/09 02:56:59;;;;;;;8.90;8.00;;;;;19.50;99514.00;;;;2061947;28;20250;-50
2022/12/09 02:58:00;;;;;;;10.27;8.00;;;;;19.50;99530.00;;;;2062602;28;20215;-55
2022/12/09 02:59:00;;;;;;;9.40;8.50;;;;;19.50;99519.00;;;;2054469;28;20687;-52
2022/12/09 03:00:01;;;;;;;9.10;8.20;;;;;19.40;99522.00;;;;2062264;28;20234;-52
2022/12/09 03:01:01;;;;;;;8.57;7.83;;;;;19.50;99516.00;;;;2070971;28;20202;-54
2022/12/09 03:02:05;;;;;;;10.50;8.70;;;;;19.50;99520.00;;;;2076070;28;20330;-54
2022/12/09 03:03:06;;;;;;;9.63;8.73;;;;;19.40;99520.00;;;;2078155;28;20920;-54
2022/12/09 03:04:06;;;;;;;10.67;9.57;;;;;19.40;99514.00;;;;2061486;28;20253;-49
2022/12/09 03:05:12;;;;;;;9.90;8.90;;;;;19.40;99520.00;;;;2070353;28;20206;-51
2022/12/09 03:06:13;;;;;;;9.55;8.65;;;;;19.40;99511.00;;;;2070588;28;20230;-49
2022/12/09 03:07:54;;;;;;;9.67;8.77;;;;;19.40;99522.00;;;;2053732;28;20240;-54
2022/12/09 03:09:12;;;;;;;8.63;7.82;;;;;19.40;99516.00;;;;2060863;28;20221;-54
2022/12/09 03:10:16;;;;;;;9.20;8.30;;;;;19.50;99514.00;;;;2070893;28;20218;-51
2022/12/09 03:11:18;;;;;;;9.40;8.45;;;;;19.40;99515.00;;;;2070710;28;20218;-52
2022/12/09 03:12:18;;;;;;;8.98;8.00;;;;;19.40;99512.00;;;;2069419;28;20356;-54
2022/12/09 03:13:42;;;;;;;9.87;8.97;;;;;19.40;99522.00;;;;2070000;28;20226;-51
2022/12/09 03:14:45;;;;;;;10.63;8.95;;;;;19.40;99517.00;;;;2058567;28;20670;-49
2022/12/09 03:15:48;;;;;;;9.50;8.60;;;;;19.40;99516.00;;;;2078645;28;20280;-53
2022/12/09 03:16:56;;;;;;;9.15;8.25;;;;;19.40;99517.00;;;;2077870;28;20225;-51
2022/12/09 03:17:57;;;;;;;9.00;8.20;;;;;19.40;99514.00;;;;2070760;28;20260;-53
2022/12/09 03:19:04;;;;;;;10.75;8.75;;;;;19.40;99517.00;;;;2069999;28;20221;-50
2022/12/09 03:20:11;;;;;;;10.23;9.23;;;;;19.40;99519.00;;;;2063140;28;20290;-54
2022/12/09 03:21:13;;;;;;;9.65;8.75;;;;;19.40;99515.00;;;;2064101;28;20294;-50
2022/12/09 03:22:15;;;;;;;9.82;8.82;;;;;19.40;99523.00;;;;2069970;28;20222;-50
2022/12/09 03:23:16;;;;;;;9.35;8.35;;;;;19.40;99517.00;;;;2069747;28;20597;-53
2022/12/09 03:24:19;;;;;;;8.53;7.63;;;;;19.40;99513.00;;;;2061325;28;20331;-53
2022/12/09 03:25:27;;;;;;;10.13;9.10;;;;;19.40;99513.00;;;;2070449;28;20222;-54
2022/12/09 03:26:28;;;;;;;9.52;8.63;;;;;19.40;99510.00;;;;2070910;28;20770;-54
2022/12/09 03:27:34;;;;;;;9.90;8.25;;;;;19.40;99509.00;;;;2070080;28;20214;-54
2022/12/09 03:28:38;;;;;;;10.00;9.00;;;;;19.40;99505.00;;;;2070304;28;20250;-54
2022/12/09 03:29:40;;;;;;;8.95;8.10;;;;;19.40;99513.00;;;;2070527;28;20209;-53
2022/12/09 03:30:40;;;;;;;8.88;7.97;;;;;19.40;99506.00;;;;2078064;28;20720;-53
2022/12/09 03:31:41;;;;;;;9.20;8.40;;;;;19.40;99509.00;;;;2069882;28;20310;-54
2022/12/09 03:32:41;;;;;;;9.73;8.83;;;;;19.40;99501.00;;;;2077593;28;20224;-53
2022/12/09 03:33:42;;;;;;;9.10;8.20;;;;;19.40;99511.00;;;;2078104;28;20221;-51
2022/12/09 03:34:43;;;;;;;9.33;8.43;;;;;19.30;99507.00;;;;2078030;28;20578;-48
2022/12/09 03:35:48;;;;;;;9.90;8.53;;;;;19.30;99497.00;;;;2069926;28;20604;-51
2022/12/09 03:36:48;;;;;;;9.35;8.45;;;;;19.30;99506.00;;;;2070985;28;20214;-50
2022/12/09 03:37:49;;;;;;;8.07;7.30;;;;;19.30;99499.00;;;;2062366;28;20671;-51
2022/12/09 03:38:49;;;;;;;10.00;8.50;;;;;19.30;99491.00;;;;2061954;28;20706;-55
2022/12/09 03:39:50;;;;;;;8.90;8.07;;;;;19.30;99506.00;;;;2070005;28;20588;-53
2022/12/09 03:40:53;;;;;;;9.60;8.63;;;;;19.30;99502.00;;;;2068751;28;20671;-50
2022/12/09 03:41:55;;;;;;;9.73;8.73;;;;;19.30;99508.00;;;;2062487;28;20234;-52
2022/12/09 03:43:10;;;;;;;10.85;8.43;;;;;19.20;99501.00;;;;2062131;28;20223;-52
2022/12/09 03:44:18;;;;;;;9.25;8.30;;;;;19.30;99500.00;;;;2056473;28;20221;-53
2022/12/09 03:45:18;;;;;;;9.77;8.55;;;;;19.30;99502.00;;;;2063047;28;20301;-54
2022/12/09 03:46:19;;;;;;;9.30;8.20;;;;;19.30;99495.00;;;;2069925;28;20674;-51
2022/12/09 03:47:19;;;;;;;9.55;7.90;;;;;19.30;99494.00;;;;2074395;28;20209;-54
2022/12/09 03:48:20;;;;;;;8.53;7.27;;;;;19.20;99508.00;;;;2062109;28;20214;-53
2022/12/09 03:49:20;;;;;;;9.80;8.90;;;;;19.30;99504.00;;;;2059565;28;20229;-54
2022/12/09 03:50:22;;;;;;;8.90;8.10;;;;;19.30;99504.00;;;;2073043;28;20705;-53
2022/12/09 03:52:03;;;;;;;9.48;8.57;;;;;19.30;99507.00;;;;2077403;28;20758;-51
2022/12/09 03:53:06;;;;;;;10.25;9.27;;;;;19.30;99495.00;;;;2045555;28;20215;-52
2022/12/09 03:54:19;;;;;;;9.10;8.10;;;;;19.30;99502.00;;;;2047699;28;20282;-54
2022/12/09 03:55:24;;;;;;;11.38;8.38;;;;;19.20;99504.00;;;;2062081;28;20199;-51
2022/12/09 03:56:27;;;;;;;9.38;8.45;;;;;19.20;99499.00;;;;2070506;28;20213;-54
2022/12/09 03:57:27;;;;;;;8.07;7.28;;;;;19.20;99499.00;;;;2068140;28;20237;-51
2022/12/09 03:58:27;;;;;;;9.70;8.50;;;;;19.20;99504.00;;;;2069635;28;20214;-51
2022/12/09 03:59:30;;;;;;;10.40;8.63;;;;;19.30;99500.00;;;;2077542;28;20209;-52
2022/12/09 04:00:30;;;;;;;8.80;7.90;;;;;19.20;99501.00;;;;2078588;28;20209;-52
2022/12/09 04:01:30;;;;;;;10.07;8.10;;;;;19.20;99487.00;;;;2077771;28;20249;-56
2022/12/09 04:02:31;;;;;;;9.67;8.30;;;;;19.20;99494.00;;;;2069009;28;20202;-57
2022/12/09 04:03:31;;;;;;;9.43;8.53;;;;;19.20;99496.00;;;;2073414;28;20254;-56
2022/12/09 04:04:33;;;;;;;8.20;7.40;;;;;19.20;99502.00;;;;2070785;28;20283;-51
2022/12/09 04:05:33;;;;;;;9.10;8.20;;;;;19.30;99498.00;;;;2070785;28;20214;-53
2022/12/09 04:06:34;;;;;;;8.50;7.70;;;;;19.30;99488.00;;;;2070575;28;20229;-52
2022/12/09 04:07:34;;;;;;;9.20;8.30;;;;;19.30;99499.00;;;;2069833;28;20242;-51
2022/12/09 04:08:34;;;;;;;8.70;7.90;;;;;19.20;99507.00;;;;2071829;28;20202;-53
2022/12/09 04:09:35;;;;;;;9.87;8.93;;;;;19.20;99500.00;;;;2078899;28;20263;-53
2022/12/09 04:10:35;;;;;;;9.53;8.60;;;;;19.20;99486.00;;;;2078482;28;20213;-53
2022/12/09 04:11:35;;;;;;;9.53;8.30;;;;;19.20;99494.00;;;;2078558;28;20244;-53
2022/12/09 04:12:36;;;;;;;9.60;8.80;;;;;19.20;99491.00;;;;2076513;28;20205;-51
2022/12/09 04:13:36;;;;;;;9.30;8.43;;;;;19.20;99489.00;;;;2070637;28;20238;-51
2022/12/09 04:14:36;;;;;;;9.40;8.40;;;;;19.30;99480.00;;;;2070748;28;20220;-52
2022/12/09 04:15:37;;;;;;;10.10;8.50;;;;;19.20;99485.00;;;;2070643;28;20214;-53
2022/12/09 04:16:37;;;;;;;9.33;8.37;;;;;19.20;99483.00;;;;2075153;28;20292;-53
2022/12/09 04:17:37;;;;;;;9.30;8.40;;;;;19.20;99486.00;;;;2078626;28;20282;-53
2022/12/09 04:18:38;;;;;;;9.13;8.20;;;;;19.20;99490.00;;;;2078733;28;20210;-54
2022/12/09 04:19:38;;;;;;;8.90;8.00;;;;;19.10;99492.00;;;;2078803;28;20236;-54
2022/12/09 04:20:38;;;;;;;8.63;7.83;;;;;19.10;99483.00;;;;2078850;28;20205;-52
2022/12/09 04:21:39;;;;;;;9.17;8.37;;;;;19.20;99491.00;;;;2078409;28;20217;-51
2022/12/09 04:22:39;;;;;;;9.37;8.50;;;;;19.20;99491.00;;;;2077922;28;20206;-53
2022/12/09 04:23:39;;;;;;;9.63;8.73;;;;;19.20;99485.00;;;;2078776;28;20290;-52
2022/12/09 04:24:40;;;;;;;9.17;8.37;;;;;19.20;99491.00;;;;2078698;28;20710;-54
2022/12/09 04:25:40;;;;;;;11.37;9.10;;;;;19.20;99487.00;;;;2078754;28;20581;-54
2022/12/09 04:26:40;;;;;;;9.20;8.30;;;;;19.20;99487.00;;;;2078934;28;20587;-54
2022/12/09 04:27:41;;;;;;;8.90;8.10;;;;;19.20;99480.00;;;;2078300;28;20705;-50
2022/12/09 04:28:41;;;;;;;10.00;8.40;;;;;19.20;99480.00;;;;2078568;28;20690;-52
2022/12/09 04:29:41;;;;;;;9.70;8.70;;;;;19.20;99482.00;;;;2078745;28;20758;-52
2022/12/09 04:30:45;;;;;;;9.17;8.10;;;;;19.20;99478.00;;;;2078631;28;20221;-52
2022/12/09 04:31:46;;;;;;;9.35;8.45;;;;;19.10;99479.00;;;;2078267;28;20697;-53
2022/12/09 04:32:46;;;;;;;9.40;8.40;;;;;19.10;99474.00;;;;2077925;28;20288;-52
2022/12/09 04:33:46;;;;;;;9.10;8.23;;;;;19.20;99474.00;;;;2078307;28;20244;-53
2022/12/09 04:34:47;;;;;;;10.17;9.10;;;;;19.10;99474.00;;;;2072994;28;20210;-53
2022/12/09 04:35:47;;;;;;;9.27;8.37;;;;;19.20;99474.00;;;;2069321;28;20237;-54
2022/12/09 04:36:47;;;;;;;9.30;8.40;;;;;19.20;99470.00;;;;2070366;28;20222;-50
2022/12/09 04:37:48;;;;;;;9.83;8.87;;;;;19.20;99473.00;;;;2069093;28;20217;-53
2022/12/09 04:38:48;;;;;;;9.80;8.80;;;;;19.10;99475.00;;;;2070097;28;20693;-54
2022/12/09 04:39:48;;;;;;;9.60;8.63;;;;;19.10;99468.00;;;;2070615;28;20211;-52
2022/12/09 04:40:49;;;;;;;9.47;8.57;;;;;19.10;99423.00;;;;2070498;28;20210;-54
2022/12/09 04:41:49;;;;;;;10.33;9.33;;;;;19.10;99475.00;;;;2069722;28;20265;-48
2022/12/09 04:42:49;;;;;;;9.40;8.40;;;;;19.10;99464.00;;;;2070536;28;20245;-52
2022/12/09 04:43:50;;;;;;;8.57;7.77;;;;;19.20;99479.00;;;;2070268;28;20222;-51
2022/12/09 04:44:50;;;;;;;10.17;9.27;;;;;19.10;99473.00;;;;2070470;28;20210;-51
2022/12/09 04:45:50;;;;;;;9.20;8.30;;;;;19.10;99472.00;;;;2070543;28;20305;-54
2022/12/09 04:46:51;;;;;;;8.90;8.03;;;;;19.10;99472.00;;;;2070454;28;20217;-54
2022/12/09 04:47:51;;;;;;;9.50;8.60;;;;;19.10;99467.00;;;;2076466;28;20213;-53
2022/12/09 04:48:51;;;;;;;9.20;8.30;;;;;19.10;99470.00;;;;2071289;28;20260;-54
2022/12/09 04:49:51;;;;;;;9.10;8.20;;;;;19.10;99466.00;;;;2070554;28;20284;-51
2022/12/09 04:50:52;;;;;;;9.43;8.53;;;;;19.10;99467.00;;;;2070531;28;20214;-53
2022/12/09 04:51:52;;;;;;;8.63;7.83;;;;;19.10;99466.00;;;;2069697;28;20221;-49
2022/12/09 04:52:52;;;;;;;9.73;8.80;;;;;19.10;99462.00;;;;2070636;28;20230;-49
2022/12/09 04:53:53;;;;;;;9.57;8.57;;;;;19.10;99463.00;;;;2069935;28;20225;-50
2022/12/09 04:54:53;;;;;;;8.73;7.87;;;;;19.10;99468.00;;;;2070554;28;20202;-52
2022/12/09 04:56:01;;;;;;;9.10;8.20;;;;;19.10;99472.00;;;;2072725;28;20206;-52
2022/12/09 04:57:01;;;;;;;8.80;7.90;;;;;19.00;99462.00;;;;2071220;28;20241;-54
2022/12/09 04:58:02;;;;;;;8.80;8.00;;;;;19.00;99468.00;;;;2062688;28;20666;-54
2022/12/09 04:59:03;;;;;;;10.67;9.50;;;;;19.00;99475.00;;;;2071078;28;20202;-53
2022/12/09 05:00:04;;;;;;;8.50;7.70;;;;;19.10;99473.00;;;;2071665;28;20214;-51
2022/12/09 05:01:08;;;;;;;8.65;7.93;;;;;19.10;99471.00;;;;2071918;28;20460;-51
2022/12/09 05:02:08;;;;;;;9.48;8.48;;;;;19.10;99474.00;;;;2070810;28;20309;-53
2022/12/09 05:03:09;;;;;;;8.90;8.00;;;;;19.10;99473.00;;;;2072103;28;20251;-49
2022/12/09 05:04:09;;;;;;;9.70;8.80;;;;;19.10;99477.00;;;;2071651;28;20256;-50
2022/12/09 05:05:10;;;;;;;9.17;8.27;;;;;19.00;99483.00;;;;2071791;28;20207;-53
2022/12/09 05:06:11;;;;;;;9.13;8.23;;;;;19.00;99476.00;;;;2071854;28;20292;-52
2022/12/09 05:07:12;;;;;;;8.50;7.70;;;;;19.00;99474.00;;;;2070846;28;20490;-50
2022/12/09 05:08:12;;;;;;;7.83;7.13;;;;;19.00;99468.00;;;;2071344;28;20218;-50
2022/12/09 05:09:12;;;;;;;9.10;8.20;;;;;19.00;99467.00;;;;2071891;28;20226;-51
2022/12/09 05:10:13;;;;;;;9.00;8.10;;;;;19.00;99470.00;;;;2071821;28;20225;-52
2022/12/09 05:11:13;;;;;;;9.33;8.43;;;;;18.90;99468.00;;;;2071765;28;20225;-52
2022/12/09 05:12:14;;;;;;;8.63;7.80;;;;;19.00;99466.00;;;;2070876;28;20222;-52
2022/12/09 05:13:14;;;;;;;8.67;7.87;;;;;19.00;99474.00;;;;2071855;28;20233;-53